sensor_id;sensor_type;location;lat;lon;timestamp;P1;durP1;ratioP1;P2;durP2;ratioP2
22441;SDS011;11388;54.456;9.752;2023-01-08T00:01:07;2.75;;;1.40;;
22441;SDS011;11388;54.456;9.752;2023-01-08T00:03:34;1.92;;;1.58;;
22441;SDS011;11388;54.456;9.752;2023-01-08T00:06:04;3.85;;;1.80;;
22441;SDS011;11388;54.456;9.752;2023-01-08T00:08:32;2.50;;;1.60;;
22441;SDS011;11388;54.456;9.752;2023-01-08T00:10:58;2.08;;;1.38;;
22441;SDS011;11388;54.456;9.752;2023-01-08T00:13:24;3.45;;;1.52;;
22441;SDS011;11388;54.456;9.752;2023-01-08T00:15:49;2.58;;;1.48;;
22441;SDS011;11388;54.456;9.752;2023-01-08T00:18:15;2.13;;;1.50;;
22441;SDS011;11388;54.456;9.752;2023-01-08T00:20:41;2.50;;;1.52;;
22441;SDS011;11388;54.456;9.752;2023-01-08T00:23:11;3.85;;;1.70;;
22441;SDS011;11388;54.456;9.752;2023-01-08T00:25:41;2.78;;;1.60;;
22441;SDS011;11388;54.456;9.752;2023-01-08T00:28:06;2.85;;;1.42;;
22441;SDS011;11388;54.456;9.752;2023-01-08T00:30:34;1.73;;;1.50;;
22441;SDS011;11388;54.456;9.752;2023-01-08T00:33:00;2.60;;;1.50;;
22441;SDS011;11388;54.456;9.752;2023-01-08T00:35:26;2.40;;;1.60;;
22441;SDS011;11388;54.456;9.752;2023-01-08T00:37:51;1.92;;;1.60;;
22441;SDS011;11388;54.456;9.752;2023-01-08T00:40:17;2.13;;;1.40;;
22441;SDS011;11388;54.456;9.752;2023-01-08T00:42:43;1.75;;;1.45;;
22441;SDS011;11388;54.456;9.752;2023-01-08T00:45:09;2.30;;;1.58;;
22441;SDS011;11388;54.456;9.752;2023-01-08T00:47:35;2.20;;;1.55;;
22441;SDS011;11388;54.456;9.752;2023-01-08T00:50:01;1.98;;;1.60;;
22441;SDS011;11388;54.456;9.752;2023-01-08T00:52:26;2.53;;;1.70;;
22441;SDS011;11388;54.456;9.752;2023-01-08T00:54:52;2.00;;;1.45;;
22441;SDS011;11388;54.456;9.752;2023-01-08T00:57:18;2.13;;;1.60;;
22441;SDS011;11388;54.456;9.752;2023-01-08T00:59:43;1.90;;;1.48;;
22441;SDS011;11388;54.456;9.752;2023-01-08T01:02:09;1.88;;;1.48;;
22441;SDS011;11388;54.456;9.752;2023-01-08T01:04:35;3.17;;;1.60;;
22441;SDS011;11388;54.456;9.752;2023-01-08T01:07:01;1.80;;;1.55;;
22441;SDS011;11388;54.456;9.752;2023-01-08T01:09:27;3.78;;;1.40;;
22441;SDS011;11388;54.456;9.752;2023-01-08T01:11:52;2.90;;;1.70;;
22441;SDS011;11388;54.456;9.752;2023-01-08T01:14:18;2.20;;;1.50;;
22441;SDS011;11388;54.456;9.752;2023-01-08T01:16:44;3.30;;;1.50;;
22441;SDS011;11388;54.456;9.752;2023-01-08T01:19:12;2.05;;;1.55;;
22441;SDS011;11388;54.456;9.752;2023-01-08T01:21:38;2.80;;;1.60;;
22441;SDS011;11388;54.456;9.752;2023-01-08T01:24:05;3.15;;;1.70;;
22441;SDS011;11388;54.456;9.752;2023-01-08T01:26:31;2.40;;;1.52;;
22441;SDS011;11388;54.456;9.752;2023-01-08T01:28:57;2.28;;;1.60;;
22441;SDS011;11388;54.456;9.752;2023-01-08T01:31:26;2.17;;;1.60;;
22441;SDS011;11388;54.456;9.752;2023-01-08T01:33:53;2.28;;;1.60;;
22441;SDS011;11388;54.456;9.752;2023-01-08T01:36:19;2.33;;;1.65;;
22441;SDS011;11388;54.456;9.752;2023-01-08T01:38:50;2.90;;;1.70;;
22441;SDS011;11388;54.456;9.752;2023-01-08T01:49:59;2.00;;;1.50;;
22441;SDS011;11388;54.456;9.752;2023-01-08T01:52:29;2.20;;;1.63;;
22441;SDS011;11388;54.456;9.752;2023-01-08T01:54:57;1.80;;;1.48;;
22441;SDS011;11388;54.456;9.752;2023-01-08T01:57:26;2.83;;;1.75;;
22441;SDS011;11388;54.456;9.752;2023-01-08T01:59:53;3.45;;;1.60;;
22441;SDS011;11388;54.456;9.752;2023-01-08T02:02:21;2.10;;;1.63;;
22441;SDS011;11388;54.456;9.752;2023-01-08T02:04:46;1.65;;;1.45;;
22441;SDS011;11388;54.456;9.752;2023-01-08T02:07:18;2.10;;;1.50;;
22441;SDS011;11388;54.456;9.752;2023-01-08T02:14:55;1.92;;;1.50;;
22441;SDS011;11388;54.456;9.752;2023-01-08T02:17:31;3.20;;;1.80;;
22441;SDS011;11388;54.456;9.752;2023-01-08T02:20:11;2.10;;;1.60;;
22441;SDS011;11388;54.456;9.752;2023-01-08T02:28:20;2.67;;;1.85;;
22441;SDS011;11388;54.456;9.752;2023-01-08T02:30:47;2.35;;;1.70;;
22441;SDS011;11388;54.456;9.752;2023-01-08T02:33:13;2.17;;;1.60;;
22441;SDS011;11388;54.456;9.752;2023-01-08T02:35:40;2.08;;;1.75;;
22441;SDS011;11388;54.456;9.752;2023-01-08T02:38:13;2.33;;;1.58;;
22441;SDS011;11388;54.456;9.752;2023-01-08T02:41:03;3.15;;;1.65;;
22441;SDS011;11388;54.456;9.752;2023-01-08T02:43:49;2.75;;;1.80;;
22441;SDS011;11388;54.456;9.752;2023-01-08T02:46:18;3.25;;;1.98;;
22441;SDS011;11388;54.456;9.752;2023-01-08T02:48:53;2.42;;;1.80;;
22441;SDS011;11388;54.456;9.752;2023-01-08T02:51:30;3.05;;;1.75;;
22441;SDS011;11388;54.456;9.752;2023-01-08T02:54:06;2.60;;;1.98;;
22441;SDS011;11388;54.456;9.752;2023-01-08T02:56:36;2.08;;;1.50;;
22441;SDS011;11388;54.456;9.752;2023-01-08T02:59:06;2.45;;;1.70;;
22441;SDS011;11388;54.456;9.752;2023-01-08T03:01:33;2.55;;;1.90;;
22441;SDS011;11388;54.456;9.752;2023-01-08T03:04:03;2.75;;;1.98;;
22441;SDS011;11388;54.456;9.752;2023-01-08T03:06:33;2.53;;;1.95;;
22441;SDS011;11388;54.456;9.752;2023-01-08T03:08:59;2.25;;;1.77;;
22441;SDS011;11388;54.456;9.752;2023-01-08T03:11:28;2.38;;;1.90;;
22441;SDS011;11388;54.456;9.752;2023-01-08T03:14:11;3.92;;;1.95;;
22441;SDS011;11388;54.456;9.752;2023-01-08T03:19:30;3.65;;;1.95;;
22441;SDS011;11388;54.456;9.752;2023-01-08T03:22:00;2.47;;;1.85;;
22441;SDS011;11388;54.456;9.752;2023-01-08T03:24:28;2.88;;;2.20;;
22441;SDS011;11388;54.456;9.752;2023-01-08T03:26:57;2.20;;;1.80;;
22441;SDS011;11388;54.456;9.752;2023-01-08T03:29:27;3.42;;;1.92;;
22441;SDS011;11388;54.456;9.752;2023-01-08T03:31:54;2.40;;;1.98;;
22441;SDS011;11388;54.456;9.752;2023-01-08T03:34:25;2.78;;;1.90;;
22441;SDS011;11388;54.456;9.752;2023-01-08T03:36:54;2.30;;;1.88;;
22441;SDS011;11388;54.456;9.752;2023-01-08T03:39:45;2.78;;;1.92;;
22441;SDS011;11388;54.456;9.752;2023-01-08T03:42:16;2.35;;;1.85;;
22441;SDS011;11388;54.456;9.752;2023-01-08T03:44:44;2.90;;;2.20;;
22441;SDS011;11388;54.456;9.752;2023-01-08T03:47:10;4.22;;;2.10;;
22441;SDS011;11388;54.456;9.752;2023-01-08T03:49:37;2.70;;;2.10;;
22441;SDS011;11388;54.456;9.752;2023-01-08T03:52:04;2.40;;;1.90;;
22441;SDS011;11388;54.456;9.752;2023-01-08T03:54:31;2.85;;;2.00;;
22441;SDS011;11388;54.456;9.752;2023-01-08T03:56:58;3.05;;;2.20;;
22441;SDS011;11388;54.456;9.752;2023-01-08T03:59:23;2.40;;;2.00;;
22441;SDS011;11388;54.456;9.752;2023-01-08T04:01:49;3.25;;;2.40;;
22441;SDS011;11388;54.456;9.752;2023-01-08T04:04:15;2.70;;;2.00;;
22441;SDS011;11388;54.456;9.752;2023-01-08T04:06:41;2.75;;;2.20;;
22441;SDS011;11388;54.456;9.752;2023-01-08T04:09:07;2.70;;;2.17;;
22441;SDS011;11388;54.456;9.752;2023-01-08T04:11:33;3.75;;;1.98;;
22441;SDS011;11388;54.456;9.752;2023-01-08T04:13:59;2.75;;;2.00;;
22441;SDS011;11388;54.456;9.752;2023-01-08T04:16:25;2.72;;;2.00;;
22441;SDS011;11388;54.456;9.752;2023-01-08T04:18:50;2.42;;;2.05;;
22441;SDS011;11388;54.456;9.752;2023-01-08T04:21:16;3.22;;;2.53;;
22441;SDS011;11388;54.456;9.752;2023-01-08T04:23:42;4.15;;;2.50;;
22441;SDS011;11388;54.456;9.752;2023-01-08T04:26:08;2.67;;;2.38;;
22441;SDS011;11388;54.456;9.752;2023-01-08T04:28:34;2.90;;;2.38;;
22441;SDS011;11388;54.456;9.752;2023-01-08T04:31:03;2.50;;;2.13;;
22441;SDS011;11388;54.456;9.752;2023-01-08T04:33:33;3.25;;;2.35;;
22441;SDS011;11388;54.456;9.752;2023-01-08T04:35:58;3.17;;;2.55;;
22441;SDS011;11388;54.456;9.752;2023-01-08T04:38:24;2.95;;;2.20;;
22441;SDS011;11388;54.456;9.752;2023-01-08T04:40:54;2.60;;;2.30;;
22441;SDS011;11388;54.456;9.752;2023-01-08T04:43:22;4.15;;;2.60;;
22441;SDS011;11388;54.456;9.752;2023-01-08T04:45:48;3.60;;;2.40;;
22441;SDS011;11388;54.456;9.752;2023-01-08T04:48:14;2.38;;;2.10;;
22441;SDS011;11388;54.456;9.752;2023-01-08T04:50:40;5.18;;;2.45;;
22441;SDS011;11388;54.456;9.752;2023-01-08T04:53:05;3.22;;;2.25;;
22441;SDS011;11388;54.456;9.752;2023-01-08T04:55:31;2.60;;;2.13;;
22441;SDS011;11388;54.456;9.752;2023-01-08T04:57:57;3.47;;;2.40;;
22441;SDS011;11388;54.456;9.752;2023-01-08T05:00:23;3.00;;;2.47;;
22441;SDS011;11388;54.456;9.752;2023-01-08T05:02:49;3.28;;;2.40;;
22441;SDS011;11388;54.456;9.752;2023-01-08T05:05:15;2.80;;;2.50;;
22441;SDS011;11388;54.456;9.752;2023-01-08T05:07:40;3.05;;;2.50;;
22441;SDS011;11388;54.456;9.752;2023-01-08T05:10:06;3.10;;;2.50;;
22441;SDS011;11388;54.456;9.752;2023-01-08T05:12:32;3.13;;;2.35;;
22441;SDS011;11388;54.456;9.752;2023-01-08T05:14:58;2.90;;;2.30;;
22441;SDS011;11388;54.456;9.752;2023-01-08T05:17:23;2.78;;;2.42;;
22441;SDS011;11388;54.456;9.752;2023-01-08T05:19:49;3.22;;;2.50;;
22441;SDS011;11388;54.456;9.752;2023-01-08T05:22:15;2.60;;;2.30;;
22441;SDS011;11388;54.456;9.752;2023-01-08T05:24:40;2.92;;;2.38;;
22441;SDS011;11388;54.456;9.752;2023-01-08T05:27:06;3.78;;;2.40;;
22441;SDS011;11388;54.456;9.752;2023-01-08T05:29:32;3.17;;;2.60;;
22441;SDS011;11388;54.456;9.752;2023-01-08T05:31:57;2.97;;;2.60;;
22441;SDS011;11388;54.456;9.752;2023-01-08T05:34:23;3.35;;;2.78;;
22441;SDS011;11388;54.456;9.752;2023-01-08T05:36:49;3.25;;;2.40;;
22441;SDS011;11388;54.456;9.752;2023-01-08T05:39:14;3.28;;;2.70;;
22441;SDS011;11388;54.456;9.752;2023-01-08T05:41:40;3.10;;;2.55;;
22441;SDS011;11388;54.456;9.752;2023-01-08T05:44:06;3.85;;;2.70;;
22441;SDS011;11388;54.456;9.752;2023-01-08T05:46:31;4.25;;;2.72;;
22441;SDS011;11388;54.456;9.752;2023-01-08T05:48:57;3.33;;;2.90;;
22441;SDS011;11388;54.456;9.752;2023-01-08T05:51:23;3.53;;;2.80;;
22441;SDS011;11388;54.456;9.752;2023-01-08T05:53:50;4.13;;;2.80;;
22441;SDS011;11388;54.456;9.752;2023-01-08T05:56:16;3.33;;;2.90;;
22441;SDS011;11388;54.456;9.752;2023-01-08T05:58:42;4.07;;;3.33;;
22441;SDS011;11388;54.456;9.752;2023-01-08T06:01:10;3.17;;;2.85;;
22441;SDS011;11388;54.456;9.752;2023-01-08T06:03:40;3.47;;;3.00;;
22441;SDS011;11388;54.456;9.752;2023-01-08T06:06:06;4.90;;;2.92;;
22441;SDS011;11388;54.456;9.752;2023-01-08T06:08:34;3.35;;;2.80;;
22441;SDS011;11388;54.456;9.752;2023-01-08T06:11:00;3.83;;;2.83;;
22441;SDS011;11388;54.456;9.752;2023-01-08T06:13:27;3.63;;;2.78;;
22441;SDS011;11388;54.456;9.752;2023-01-08T06:15:59;2.92;;;2.58;;
22441;SDS011;11388;54.456;9.752;2023-01-08T06:18:26;3.17;;;2.67;;
22441;SDS011;11388;54.456;9.752;2023-01-08T06:20:53;3.30;;;2.72;;
22441;SDS011;11388;54.456;9.752;2023-01-08T06:23:19;3.65;;;2.88;;
22441;SDS011;11388;54.456;9.752;2023-01-08T06:25:50;2.80;;;2.47;;
22441;SDS011;11388;54.456;9.752;2023-01-08T06:28:17;3.15;;;2.50;;
22441;SDS011;11388;54.456;9.752;2023-01-08T06:30:43;3.58;;;2.50;;
22441;SDS011;11388;54.456;9.752;2023-01-08T06:35:40;5.32;;;2.58;;
22441;SDS011;11388;54.456;9.752;2023-01-08T06:38:05;3.92;;;2.50;;
22441;SDS011;11388;54.456;9.752;2023-01-08T06:40:31;3.33;;;2.40;;
22441;SDS011;11388;54.456;9.752;2023-01-08T06:43:03;3.30;;;2.30;;
22441;SDS011;11388;54.456;9.752;2023-01-08T06:45:30;3.47;;;2.45;;
22441;SDS011;11388;54.456;9.752;2023-01-08T06:48:03;3.40;;;2.40;;
22441;SDS011;11388;54.456;9.752;2023-01-08T06:50:30;4.60;;;2.70;;
22441;SDS011;11388;54.456;9.752;2023-01-08T06:52:56;4.63;;;2.75;;
22441;SDS011;11388;54.456;9.752;2023-01-08T06:55:23;3.33;;;2.58;;
22441;SDS011;11388;54.456;9.752;2023-01-08T06:57:52;4.47;;;2.72;;
22441;SDS011;11388;54.456;9.752;2023-01-08T07:00:19;3.95;;;2.75;;
22441;SDS011;11388;54.456;9.752;2023-01-08T07:02:46;4.50;;;2.97;;
22441;SDS011;11388;54.456;9.752;2023-01-08T07:05:12;3.60;;;2.90;;
22441;SDS011;11388;54.456;9.752;2023-01-08T07:07:37;4.03;;;2.90;;
22441;SDS011;11388;54.456;9.752;2023-01-08T07:10:03;4.85;;;2.80;;
22441;SDS011;11388;54.456;9.752;2023-01-08T07:12:29;4.30;;;3.10;;
22441;SDS011;11388;54.456;9.752;2023-01-08T07:14:55;5.57;;;3.42;;
22441;SDS011;11388;54.456;9.752;2023-01-08T07:17:21;4.15;;;3.20;;
22441;SDS011;11388;54.456;9.752;2023-01-08T07:19:46;3.70;;;3.30;;
22441;SDS011;11388;54.456;9.752;2023-01-08T07:22:12;3.75;;;3.28;;
22441;SDS011;11388;54.456;9.752;2023-01-08T07:24:45;4.38;;;3.00;;
22441;SDS011;11388;54.456;9.752;2023-01-08T07:27:10;3.80;;;3.15;;
22441;SDS011;11388;54.456;9.752;2023-01-08T07:29:36;5.03;;;3.10;;
22441;SDS011;11388;54.456;9.752;2023-01-08T07:32:02;3.50;;;2.88;;
22441;SDS011;11388;54.456;9.752;2023-01-08T07:34:27;3.65;;;3.00;;
22441;SDS011;11388;54.456;9.752;2023-01-08T07:36:53;3.83;;;3.17;;
22441;SDS011;11388;54.456;9.752;2023-01-08T07:39:19;4.35;;;3.10;;
22441;SDS011;11388;54.456;9.752;2023-01-08T07:41:44;3.95;;;3.10;;
22441;SDS011;11388;54.456;9.752;2023-01-08T07:44:10;3.92;;;3.53;;
22441;SDS011;11388;54.456;9.752;2023-01-08T07:46:36;3.55;;;3.25;;
22441;SDS011;11388;54.456;9.752;2023-01-08T07:49:02;3.90;;;3.50;;
22441;SDS011;11388;54.456;9.752;2023-01-08T07:51:27;4.05;;;3.65;;
22441;SDS011;11388;54.456;9.752;2023-01-08T07:53:54;4.93;;;3.70;;
22441;SDS011;11388;54.456;9.752;2023-01-08T07:56:20;4.05;;;3.58;;
22441;SDS011;11388;54.456;9.752;2023-01-08T07:58:47;4.63;;;3.50;;
22441;SDS011;11388;54.456;9.752;2023-01-08T08:01:13;4.28;;;3.63;;
22441;SDS011;11388;54.456;9.752;2023-01-08T08:06:26;3.47;;;3.17;;
22441;SDS011;11388;54.456;9.752;2023-01-08T08:08:52;4.03;;;3.42;;
22441;SDS011;11388;54.456;9.752;2023-01-08T08:11:18;3.78;;;3.20;;
22441;SDS011;11388;54.456;9.752;2023-01-08T08:13:44;4.22;;;3.60;;
22441;SDS011;11388;54.456;9.752;2023-01-08T08:16:11;4.07;;;3.67;;
22441;SDS011;11388;54.456;9.752;2023-01-08T08:18:37;3.90;;;3.50;;
22441;SDS011;11388;54.456;9.752;2023-01-08T08:21:02;5.38;;;4.63;;
22441;SDS011;11388;54.456;9.752;2023-01-08T08:26:04;4.38;;;3.28;;
22441;SDS011;11388;54.456;9.752;2023-01-08T08:28:31;4.25;;;3.25;;
22441;SDS011;11388;54.456;9.752;2023-01-08T08:30:57;4.35;;;3.50;;
22441;SDS011;11388;54.456;9.752;2023-01-08T08:33:23;4.95;;;3.40;;
22441;SDS011;11388;54.456;9.752;2023-01-08T08:35:49;4.05;;;3.63;;
22441;SDS011;11388;54.456;9.752;2023-01-08T08:38:15;6.72;;;3.15;;
22441;SDS011;11388;54.456;9.752;2023-01-08T08:40:41;4.65;;;3.50;;
22441;SDS011;11388;54.456;9.752;2023-01-08T08:43:07;4.38;;;3.38;;
22441;SDS011;11388;54.456;9.752;2023-01-08T08:45:35;3.60;;;3.20;;
22441;SDS011;11388;54.456;9.752;2023-01-08T08:48:01;5.00;;;3.25;;
22441;SDS011;11388;54.456;9.752;2023-01-08T08:50:29;4.82;;;3.40;;
22441;SDS011;11388;54.456;9.752;2023-01-08T08:52:59;4.28;;;3.55;;
22441;SDS011;11388;54.456;9.752;2023-01-08T08:55:26;4.65;;;3.15;;
22441;SDS011;11388;54.456;9.752;2023-01-08T08:57:52;4.78;;;3.20;;
22441;SDS011;11388;54.456;9.752;2023-01-08T09:00:18;4.00;;;3.17;;
22441;SDS011;11388;54.456;9.752;2023-01-08T09:02:53;5.15;;;3.40;;
22441;SDS011;11388;54.456;9.752;2023-01-08T09:05:19;3.65;;;3.22;;
22441;SDS011;11388;54.456;9.752;2023-01-08T09:07:45;3.25;;;2.88;;
22441;SDS011;11388;54.456;9.752;2023-01-08T09:10:11;3.72;;;2.92;;
22441;SDS011;11388;54.456;9.752;2023-01-08T09:12:36;3.42;;;2.70;;
22441;SDS011;11388;54.456;9.752;2023-01-08T09:15:02;3.83;;;3.30;;
22441;SDS011;11388;54.456;9.752;2023-01-08T09:17:28;4.63;;;3.60;;
22441;SDS011;11388;54.456;9.752;2023-01-08T09:19:54;4.40;;;3.75;;
22441;SDS011;11388;54.456;9.752;2023-01-08T09:22:19;6.00;;;3.00;;
22441;SDS011;11388;54.456;9.752;2023-01-08T09:24:45;4.32;;;3.47;;
22441;SDS011;11388;54.456;9.752;2023-01-08T09:27:11;4.18;;;3.47;;
22441;SDS011;11388;54.456;9.752;2023-01-08T09:29:37;4.30;;;3.78;;
22441;SDS011;11388;54.456;9.752;2023-01-08T09:32:06;6.75;;;5.10;;
22441;SDS011;11388;54.456;9.752;2023-01-08T09:34:33;10.15;;;9.07;;
22441;SDS011;11388;54.456;9.752;2023-01-08T09:37:00;5.03;;;4.13;;
22441;SDS011;11388;54.456;9.752;2023-01-08T09:39:26;6.82;;;5.50;;
22441;SDS011;11388;54.456;9.752;2023-01-08T09:41:51;4.95;;;3.70;;
22441;SDS011;11388;54.456;9.752;2023-01-08T09:44:20;4.47;;;3.65;;
22441;SDS011;11388;54.456;9.752;2023-01-08T09:46:52;5.75;;;5.05;;
22441;SDS011;11388;54.456;9.752;2023-01-08T09:52:11;5.47;;;4.00;;
22441;SDS011;11388;54.456;9.752;2023-01-08T09:54:38;4.47;;;3.50;;
22441;SDS011;11388;54.456;9.752;2023-01-08T09:57:05;3.78;;;3.25;;
22441;SDS011;11388;54.456;9.752;2023-01-08T09:59:36;6.28;;;4.40;;
22441;SDS011;11388;54.456;9.752;2023-01-08T10:02:02;5.63;;;4.65;;
22441;SDS011;11388;54.456;9.752;2023-01-08T10:04:31;7.55;;;6.03;;
22441;SDS011;11388;54.456;9.752;2023-01-08T10:09:27;4.75;;;3.58;;
22441;SDS011;11388;54.456;9.752;2023-01-08T10:11:55;5.03;;;3.88;;
22441;SDS011;11388;54.456;9.752;2023-01-08T10:14:25;5.05;;;3.80;;
22441;SDS011;11388;54.456;9.752;2023-01-08T10:17:02;5.88;;;4.75;;
22441;SDS011;11388;54.456;9.752;2023-01-08T10:19:37;6.15;;;4.00;;
22441;SDS011;11388;54.456;9.752;2023-01-08T10:22:07;5.00;;;3.67;;
22441;SDS011;11388;54.456;9.752;2023-01-08T10:24:46;4.32;;;3.80;;
22441;SDS011;11388;54.456;9.752;2023-01-08T10:27:13;4.72;;;3.60;;
22441;SDS011;11388;54.456;9.752;2023-01-08T10:29:44;4.07;;;3.25;;
22441;SDS011;11388;54.456;9.752;2023-01-08T10:32:14;3.67;;;3.22;;
22441;SDS011;11388;54.456;9.752;2023-01-08T10:34:43;6.38;;;4.15;;
22441;SDS011;11388;54.456;9.752;2023-01-08T10:39:54;4.07;;;3.67;;
22441;SDS011;11388;54.456;9.752;2023-01-08T10:42:26;4.78;;;3.63;;
22441;SDS011;11388;54.456;9.752;2023-01-08T10:44:53;5.35;;;4.25;;
22441;SDS011;11388;54.456;9.752;2023-01-08T10:47:27;5.80;;;4.13;;
22441;SDS011;11388;54.456;9.752;2023-01-08T10:49:55;3.67;;;2.80;;
22441;SDS011;11388;54.456;9.752;2023-01-08T10:52:24;4.50;;;3.17;;
22441;SDS011;11388;54.456;9.752;2023-01-08T10:54:50;5.53;;;3.13;;
22441;SDS011;11388;54.456;9.752;2023-01-08T10:57:23;3.97;;;3.20;;
22441;SDS011;11388;54.456;9.752;2023-01-08T10:59:55;5.03;;;2.95;;
22441;SDS011;11388;54.456;9.752;2023-01-08T11:02:31;3.38;;;2.78;;
22441;SDS011;11388;54.456;9.752;2023-01-08T11:04:59;3.13;;;2.83;;
22441;SDS011;11388;54.456;9.752;2023-01-08T11:07:25;4.47;;;2.90;;
22441;SDS011;11388;54.456;9.752;2023-01-08T11:09:52;3.00;;;2.70;;
22441;SDS011;11388;54.456;9.752;2023-01-08T11:12:29;4.20;;;2.92;;
22441;SDS011;11388;54.456;9.752;2023-01-08T11:15:04;6.30;;;3.55;;
22441;SDS011;11388;54.456;9.752;2023-01-08T11:17:41;3.85;;;3.40;;
22441;SDS011;11388;54.456;9.752;2023-01-08T11:20:19;3.75;;;2.80;;
22441;SDS011;11388;54.456;9.752;2023-01-08T11:22:47;3.15;;;2.60;;
22441;SDS011;11388;54.456;9.752;2023-01-08T11:25:18;4.07;;;3.17;;
22441;SDS011;11388;54.456;9.752;2023-01-08T11:27:50;3.38;;;2.50;;
22441;SDS011;11388;54.456;9.752;2023-01-08T11:30:22;4.20;;;3.00;;
22441;SDS011;11388;54.456;9.752;2023-01-08T11:33:06;3.50;;;2.88;;
22441;SDS011;11388;54.456;9.752;2023-01-08T11:35:38;3.95;;;2.97;;
22441;SDS011;11388;54.456;9.752;2023-01-08T11:38:17;3.67;;;3.03;;
22441;SDS011;11388;54.456;9.752;2023-01-08T11:46:47;3.70;;;2.50;;
22441;SDS011;11388;54.456;9.752;2023-01-08T11:52:22;4.47;;;2.60;;
22441;SDS011;11388;54.456;9.752;2023-01-08T11:55:12;4.28;;;2.83;;
22441;SDS011;11388;54.456;9.752;2023-01-08T12:03:07;3.50;;;2.63;;
22441;SDS011;11388;54.456;9.752;2023-01-08T12:06:01;4.88;;;2.65;;
22441;SDS011;11388;54.456;9.752;2023-01-08T12:11:11;3.97;;;2.45;;
22441;SDS011;11388;54.456;9.752;2023-01-08T12:14:35;4.38;;;2.40;;
22441;SDS011;11388;54.456;9.752;2023-01-08T12:22:53;3.38;;;2.40;;
22441;SDS011;11388;54.456;9.752;2023-01-08T12:25:32;3.15;;;2.22;;
22441;SDS011;11388;54.456;9.752;2023-01-08T12:28:14;3.70;;;2.40;;
22441;SDS011;11388;54.456;9.752;2023-01-08T12:36:36;2.95;;;1.90;;
22441;SDS011;11388;54.456;9.752;2023-01-08T12:39:49;8.82;;;7.30;;
22441;SDS011;11388;54.456;9.752;2023-01-08T12:42:05;8.05;;;5.55;;
22441;SDS011;11388;54.456;9.752;2023-01-08T12:44:37;8.10;;;5.95;;
22441;SDS011;11388;54.456;9.752;2023-01-08T12:47:06;4.45;;;2.30;;
22441;SDS011;11388;54.456;9.752;2023-01-08T12:49:41;4.00;;;2.22;;
22441;SDS011;11388;54.456;9.752;2023-01-08T12:52:21;6.32;;;4.30;;
22441;SDS011;11388;54.456;9.752;2023-01-08T12:55:20;3.85;;;1.90;;
22441;SDS011;11388;54.456;9.752;2023-01-08T13:01:04;7.32;;;3.30;;
22441;SDS011;11388;54.456;9.752;2023-01-08T13:03:46;4.95;;;2.13;;
22441;SDS011;11388;54.456;9.752;2023-01-08T13:06:13;9.02;;;4.97;;
22441;SDS011;11388;54.456;9.752;2023-01-08T13:08:43;4.78;;;1.95;;
22441;SDS011;11388;54.456;9.752;2023-01-08T13:11:23;7.15;;;2.67;;
22441;SDS011;11388;54.456;9.752;2023-01-08T13:13:57;5.93;;;2.88;;
22441;SDS011;11388;54.456;9.752;2023-01-08T13:16:24;5.60;;;2.50;;
22441;SDS011;11388;54.456;9.752;2023-01-08T13:18:51;5.63;;;3.60;;
22441;SDS011;11388;54.456;9.752;2023-01-08T13:21:25;7.03;;;3.95;;
22441;SDS011;11388;54.456;9.752;2023-01-08T13:24:03;7.00;;;4.40;;
22441;SDS011;11388;54.456;9.752;2023-01-08T13:26:31;2.80;;;1.45;;
22441;SDS011;11388;54.456;9.752;2023-01-08T13:29:07;6.57;;;4.90;;
22441;SDS011;11388;54.456;9.752;2023-01-08T13:31:47;5.13;;;2.80;;
22441;SDS011;11388;54.456;9.752;2023-01-08T13:34:47;3.33;;;1.50;;
22441;SDS011;11388;54.456;9.752;2023-01-08T13:37:06;3.88;;;2.20;;
22441;SDS011;11388;54.456;9.752;2023-01-08T13:39:34;5.70;;;3.13;;
22441;SDS011;11388;54.456;9.752;2023-01-08T13:44:37;5.03;;;1.73;;
22441;SDS011;11388;54.456;9.752;2023-01-08T13:47:15;4.25;;;1.60;;
22441;SDS011;11388;54.456;9.752;2023-01-08T13:49:45;3.20;;;1.20;;
22441;SDS011;11388;54.456;9.752;2023-01-08T13:55:00;4.45;;;1.55;;
22441;SDS011;11388;54.456;9.752;2023-01-08T13:57:30;4.60;;;1.60;;
22441;SDS011;11388;54.456;9.752;2023-01-08T14:00:02;3.58;;;1.40;;
22441;SDS011;11388;54.456;9.752;2023-01-08T14:02:31;5.20;;;1.50;;
22441;SDS011;11388;54.456;9.752;2023-01-08T14:05:11;5.07;;;1.52;;
22441;SDS011;11388;54.456;9.752;2023-01-08T14:07:44;5.78;;;1.40;;
22441;SDS011;11388;54.456;9.752;2023-01-08T14:10:11;5.80;;;1.30;;
22441;SDS011;11388;54.456;9.752;2023-01-08T14:12:37;4.38;;;1.30;;
22441;SDS011;11388;54.456;9.752;2023-01-08T14:15:06;4.43;;;1.20;;
22441;SDS011;11388;54.456;9.752;2023-01-08T14:17:34;3.67;;;1.10;;
22441;SDS011;11388;54.456;9.752;2023-01-08T14:20:00;4.15;;;1.25;;
22441;SDS011;11388;54.456;9.752;2023-01-08T14:22:30;4.93;;;1.48;;
22441;SDS011;11388;54.456;9.752;2023-01-08T14:24:59;6.68;;;1.70;;
22441;SDS011;11388;54.456;9.752;2023-01-08T14:27:28;4.38;;;1.42;;
22441;SDS011;11388;54.456;9.752;2023-01-08T14:29:55;3.45;;;1.20;;
22441;SDS011;11388;54.456;9.752;2023-01-08T14:32:22;3.83;;;1.50;;
22441;SDS011;11388;54.456;9.752;2023-01-08T14:34:58;4.45;;;1.50;;
22441;SDS011;11388;54.456;9.752;2023-01-08T14:37:25;3.72;;;1.50;;
22441;SDS011;11388;54.456;9.752;2023-01-08T14:39:51;3.78;;;1.50;;
22441;SDS011;11388;54.456;9.752;2023-01-08T14:45:17;4.75;;;2.05;;
22441;SDS011;11388;54.456;9.752;2023-01-08T14:47:46;3.45;;;1.42;;
22441;SDS011;11388;54.456;9.752;2023-01-08T14:50:22;4.95;;;2.03;;
22441;SDS011;11388;54.456;9.752;2023-01-08T14:52:50;3.67;;;1.50;;
22441;SDS011;11388;54.456;9.752;2023-01-08T14:55:19;3.67;;;1.55;;
22441;SDS011;11388;54.456;9.752;2023-01-08T14:57:46;3.15;;;1.60;;
22441;SDS011;11388;54.456;9.752;2023-01-08T15:00:15;3.92;;;2.10;;
22441;SDS011;11388;54.456;9.752;2023-01-08T15:02:46;3.40;;;1.70;;
22441;SDS011;11388;54.456;9.752;2023-01-08T15:05:23;5.78;;;2.53;;
22441;SDS011;11388;54.456;9.752;2023-01-08T15:08:01;3.83;;;2.15;;
22441;SDS011;11388;54.456;9.752;2023-01-08T15:10:46;3.72;;;1.98;;
22441;SDS011;11388;54.456;9.752;2023-01-08T15:13:23;3.22;;;2.10;;
22441;SDS011;11388;54.456;9.752;2023-01-08T15:15:53;3.70;;;2.10;;
22441;SDS011;11388;54.456;9.752;2023-01-08T15:18:23;5.53;;;2.92;;
22441;SDS011;11388;54.456;9.752;2023-01-08T15:20:49;4.65;;;2.97;;
22441;SDS011;11388;54.456;9.752;2023-01-08T15:23:23;4.57;;;2.58;;
22441;SDS011;11388;54.456;9.752;2023-01-08T15:25:57;5.22;;;2.95;;
22441;SDS011;11388;54.456;9.752;2023-01-08T15:28:23;5.60;;;3.40;;
22441;SDS011;11388;54.456;9.752;2023-01-08T15:30:50;5.43;;;3.50;;
22441;SDS011;11388;54.456;9.752;2023-01-08T15:35:45;6.95;;;3.35;;
22441;SDS011;11388;54.456;9.752;2023-01-08T15:38:12;4.88;;;2.70;;
22441;SDS011;11388;54.456;9.752;2023-01-08T15:40:38;4.65;;;2.53;;
22441;SDS011;11388;54.456;9.752;2023-01-08T15:43:03;5.22;;;2.92;;
22441;SDS011;11388;54.456;9.752;2023-01-08T15:45:35;6.45;;;3.30;;
22441;SDS011;11388;54.456;9.752;2023-01-08T15:48:02;5.55;;;2.92;;
22441;SDS011;11388;54.456;9.752;2023-01-08T15:50:28;4.75;;;2.45;;
22441;SDS011;11388;54.456;9.752;2023-01-08T15:53:02;3.22;;;2.00;;
22441;SDS011;11388;54.456;9.752;2023-01-08T15:55:28;3.35;;;1.90;;
22441;SDS011;11388;54.456;9.752;2023-01-08T15:57:56;4.07;;;1.92;;
22441;SDS011;11388;54.456;9.752;2023-01-08T16:00:22;2.85;;;1.83;;
22441;SDS011;11388;54.456;9.752;2023-01-08T16:02:48;4.82;;;2.42;;
22441;SDS011;11388;54.456;9.752;2023-01-08T16:05:15;4.85;;;2.28;;
22441;SDS011;11388;54.456;9.752;2023-01-08T16:07:42;2.97;;;1.98;;
22441;SDS011;11388;54.456;9.752;2023-01-08T16:10:11;3.20;;;2.20;;
22441;SDS011;11388;54.456;9.752;2023-01-08T16:12:38;4.40;;;2.50;;
22441;SDS011;11388;54.456;9.752;2023-01-08T16:15:04;4.90;;;3.20;;
22441;SDS011;11388;54.456;9.752;2023-01-08T16:17:33;6.70;;;4.07;;
22441;SDS011;11388;54.456;9.752;2023-01-08T16:20:00;4.15;;;3.30;;